Time;durP1;ratioP1;P1;durP2;ratioP2;P2;SDS_P1;SDS_P2;PMS_P1;PMS_P2;Temp;Humidity;BMP_temperature;BMP_pressure;BME280_temperature;BME280_humidity;BME280_pressure;Samples;Min_cycle;Max_cycle;Signal;HPM_P1;HPM_P2
2023/01/09 00:01:34;;;;;;;4.78;1.83;;;;;;;6.91;100.00;99195.03;4982827;28;20060;-85
2023/01/09 00:04:00;;;;;;;4.82;2.05;;;;;;;6.93;100.00;99201.00;4982176;28;20495;-84
2023/01/09 00:06:26;;;;;;;2.97;1.73;;;;;;;6.99;100.00;99198.63;4992806;28;20038;-84
2023/01/09 00:08:51;;;;;;;5.07;1.92;;;;;;;6.94;100.00;99215.72;4991107;28;20050;-84
2023/01/09 00:11:16;;;;;;;7.90;2.20;;;;;;;6.91;100.00;99215.31;4989448;28;20451;-84
2023/01/09 00:13:42;;;;;;;3.15;1.30;;;;;;;6.88;100.00;99221.66;4981181;28;20026;-84
2023/01/09 00:16:08;;;;;;;8.80;1.80;;;;;;;6.98;100.00;99216.50;5001638;28;20023;-84
2023/01/09 00:18:34;;;;;;;5.68;1.75;;;;;;;6.98;100.00;99225.66;5008651;28;20040;-84
2023/01/09 00:21:05;;;;;;;4.68;2.22;;;;;;;6.99;100.00;99230.00;4991614;28;20491;-84
2023/01/09 00:23:31;;;;;;;3.25;1.60;;;;;;;7.01;100.00;99226.84;4990904;28;20044;-84
2023/01/09 00:26:04;;;;;;;9.00;2.63;;;;;;;7.00;100.00;99226.06;4989156;28;20492;-84
2023/01/09 00:28:29;;;;;;;5.82;2.60;;;;;;;6.92;100.00;99210.53;4989892;28;20042;-84
2023/01/09 00:30:56;;;;;;;2.15;1.70;;;;;;;7.00;100.00;99217.72;4989635;28;20112;-84
2023/01/09 00:33:27;;;;;;;7.03;2.10;;;;;;;6.94;100.00;99221.28;4978029;28;20030;-84
2023/01/09 00:35:52;;;;;;;4.25;1.98;;;;;;;6.96;100.00;99228.03;4990168;28;20053;-84
2023/01/09 00:38:18;;;;;;;3.88;2.08;;;;;;;7.03;100.00;99227.25;4990090;28;20031;-84
2023/01/09 00:40:43;;;;;;;2.40;1.98;;;;;;;7.01;100.00;99227.63;4992049;28;20437;-84
2023/01/09 00:43:08;;;;;;;9.60;2.20;;;;;;;6.98;100.00;99231.22;5002821;28;20056;-84
2023/01/09 00:45:34;;;;;;;4.88;1.98;;;;;;;6.82;100.00;99217.66;4991648;28;20283;-84
2023/01/09 00:48:07;;;;;;;6.03;2.30;;;;;;;6.91;100.00;99228.41;4989699;28;20030;-84
2023/01/09 00:50:34;;;;;;;2.38;1.75;;;;;;;6.93;100.00;99212.13;4988253;28;20038;-84
2023/01/09 00:53:06;;;;;;;5.35;2.20;;;;;;;6.88;100.00;99224.44;4991033;28;20109;-84
2023/01/09 00:55:33;;;;;;;3.83;2.13;;;;;;;6.82;100.00;99214.88;4985519;28;20022;-84
2023/01/09 00:57:58;;;;;;;7.30;2.58;;;;;;;6.95;100.00;99226.41;4988853;28;20101;-84
2023/01/09 01:00:27;;;;;;;5.18;2.00;;;;;;;6.94;100.00;99243.53;4990375;28;20486;-83
2023/01/09 01:02:52;;;;;;;4.05;2.15;;;;;;;6.91;100.00;99226.44;5007343;28;20382;-84
2023/01/09 01:08:01;;;;;;;5.03;2.10;;;;;;;6.92;100.00;99241.13;4991280;28;20449;-83
2023/01/09 01:10:27;;;;;;;7.13;2.20;;;;;;;6.91;100.00;99239.53;4998428;28;20054;-83
2023/01/09 01:12:52;;;;;;;5.57;2.30;;;;;;;6.84;100.00;99239.50;4990949;28;20072;-84
2023/01/09 01:15:19;;;;;;;3.92;1.92;;;;;;;6.94;100.00;99249.88;4995258;28;20030;-84
2023/01/09 01:17:45;;;;;;;4.88;2.03;;;;;;;6.98;100.00;99238.75;4987798;28;20035;-84
2023/01/09 01:20:16;;;;;;;4.63;2.22;;;;;;;6.90;100.00;99247.09;5004029;28;20533;-84
2023/01/09 01:22:41;;;;;;;8.65;1.77;;;;;;;6.92;100.00;99243.91;4986114;28;20034;-84
2023/01/09 01:25:08;;;;;;;6.47;2.28;;;;;;;6.80;100.00;99244.28;4991269;28;20034;-84
2023/01/09 01:27:33;;;;;;;5.43;1.95;;;;;;;6.74;100.00;99252.19;4987895;28;20033;-84
2023/01/09 01:29:59;;;;;;;5.32;2.00;;;;;;;6.65;100.00;99233.09;4986118;28;20528;-84
2023/01/09 01:32:24;;;;;;;8.60;2.80;;;;;;;6.81;100.00;99251.41;4991330;28;20064;-84
2023/01/09 01:34:50;;;;;;;8.15;2.08;;;;;;;6.67;100.00;99252.97;4987428;28;20038;-84
2023/01/09 01:37:15;;;;;;;5.70;1.90;;;;;;;6.71;100.00;99253.78;4993376;28;20121;-84
2023/01/09 01:39:40;;;;;;;6.25;2.15;;;;;;;6.77;100.00;99264.50;4988129;28;20066;-84
2023/01/09 01:42:06;;;;;;;4.55;1.85;;;;;;;6.69;100.00;99258.94;4988429;28;20042;-84
2023/01/09 01:45:11;;;;;;;2.20;1.58;;;;;;;6.68;100.00;99259.31;5012656;28;20040;-84
2023/01/09 01:47:51;;;;;;;5.30;2.15;;;;;;;6.81;100.00;99260.56;4994878;28;20034;-84
2023/01/09 01:50:34;;;;;;;5.20;2.30;;;;;;;6.63;100.00;99260.50;4989830;28;20443;-84
2023/01/09 01:53:05;;;;;;;;;;;;;;;6.59;100.00;99270.78;4991749;28;20037;-84
2023/01/09 01:55:35;;;;;;;6.90;2.60;;;;;;;6.55;100.00;99277.53;4995019;28;20712;-84
2023/01/09 01:58:03;;;;;;;6.43;2.47;;;;;;;6.53;100.00;99275.13;4980654;28;20131;-84
2023/01/09 02:00:34;;;;;;;6.65;2.50;;;;;;;6.44;100.00;99277.47;4998833;28;20033;-84
2023/01/09 02:03:00;;;;;;;7.75;2.40;;;;;;;6.50;100.00;99281.47;4990912;28;20088;-84
2023/01/09 02:05:26;;;;;;;9.52;2.20;;;;;;;6.50;100.00;99276.72;4986069;28;20030;-84
2023/01/09 02:07:51;;;;;;;5.35;2.22;;;;;;;6.52;100.00;99268.00;4993598;28;20029;-84
2023/01/09 02:10:17;;;;;;;7.45;2.15;;;;;;;6.47;100.00;99271.13;5007236;28;20130;-84
2023/01/09 02:12:42;;;;;;;4.07;2.35;;;;;;;6.44;100.00;99271.91;4991185;28;20034;-84
2023/01/09 02:15:11;;;;;;;6.28;3.25;;;;;;;6.36;100.00;99271.06;5010911;28;20033;-84
2023/01/09 02:17:51;;;;;;;5.55;2.08;;;;;;;6.50;100.00;99276.72;4993150;28;20053;-84
2023/01/09 02:20:36;;;;;;;6.82;2.50;;;;;;;6.39;100.00;99270.31;4992875;28;20030;-84
2023/01/09 02:23:26;;;;;;;17.33;3.10;;;;;;;6.38;100.00;99274.25;5005393;28;20037;-84
2023/01/09 02:26:07;;;;;;;5.32;2.67;;;;;;;6.47;100.00;99273.91;5008947;28;20049;-84
2023/01/09 02:28:38;;;;;;;5.32;2.88;;;;;;;6.35;100.00;99280.59;4991179;28;20655;-84
2023/01/09 02:31:12;;;;;;;8.80;2.80;;;;;;;6.36;100.00;99275.84;4989948;28;20034;-84
2023/01/09 02:34:11;;;;;;;8.60;3.95;;;;;;;6.30;100.00;99273.44;4988987;28;20077;-84
2023/01/09 02:36:51;;;;;;;4.13;2.28;;;;;;;6.39;100.00;99267.53;4990566;28;20134;-84
2023/01/09 02:39:50;;;;;;;15.40;4.50;;;;;;;6.36;100.00;99275.84;4992021;28;20054;-84
2023/01/09 02:42:38;;;;;;;8.55;2.85;;;;;;;6.24;100.00;99277.78;4989185;28;20046;-84
2023/01/09 02:45:03;;;;;;;8.00;4.05;;;;;;;6.30;100.00;99281.78;5007015;28;20045;-84
2023/01/09 02:47:29;;;;;;;7.30;5.05;;;;;;;6.36;100.00;99281.41;4991812;28;20109;-84
2023/01/09 02:50:02;;;;;;;10.13;3.05;;;;;;;6.33;100.00;99279.41;4993158;28;20487;-84
2023/01/09 02:52:30;;;;;;;6.88;3.80;;;;;;;6.40;100.00;99282.22;4988921;28;20054;-84
2023/01/09 02:55:04;;;;;;;7.70;3.53;;;;;;;6.19;100.00;99283.69;4992377;28;20058;-84
2023/01/09 02:57:50;;;;;;;10.70;3.60;;;;;;;6.25;100.00;99284.91;4983463;28;20034;-84
2023/01/09 03:00:19;;;;;;;5.75;3.40;;;;;;;6.17;100.00;99282.47;4993609;28;20031;-84
2023/01/09 03:02:56;;;;;;;7.65;3.92;;;;;;;5.89;100.00;99290.19;5000456;28;20417;-84
2023/01/09 03:05:29;;;;;;;7.45;3.97;;;;;;;6.14;100.00;99286.84;4988432;28;20382;-84
2023/01/09 03:08:00;;;;;;;11.60;5.22;;;;;;;6.16;100.00;99283.69;4995721;28;20380;-84
2023/01/09 03:10:44;;;;;;;11.02;4.43;;;;;;;6.02;100.00;99284.38;4995065;28;20046;-84
2023/01/09 03:13:14;;;;;;;18.77;6.18;;;;;;;6.14;100.00;99286.03;4997670;28;20036;-84
2023/01/09 03:15:43;;;;;;;11.45;5.78;;;;;;;6.20;100.00;99279.72;4992542;28;20049;-84
2023/01/09 03:18:10;;;;;;;10.85;5.28;;;;;;;6.11;100.00;99282.03;4994141;28;20033;-84
2023/01/09 03:20:37;;;;;;;15.05;6.05;;;;;;;6.06;100.00;99279.63;4990749;28;20394;-83
2023/01/09 03:23:04;;;;;;;13.50;7.28;;;;;;;6.03;100.00;99280.38;4993827;28;20030;-84
2023/01/09 03:25:31;;;;;;;12.90;6.30;;;;;;;6.09;100.00;99279.66;4986680;28;20492;-84
2023/01/09 03:28:03;;;;;;;16.25;8.65;;;;;;;6.12;100.00;99272.53;4993260;28;20801;-84
2023/01/09 03:30:30;;;;;;;15.85;7.93;;;;;;;5.96;100.00;99283.13;4987719;28;20486;-84
2023/01/09 03:32:56;;;;;;;18.60;10.32;;;;;;;5.89;100.00;99276.31;4990058;28;20038;-84
2023/01/09 03:35:22;;;;;;;16.95;8.75;;;;;;;5.97;100.00;99284.75;4990976;28;20041;-84
2023/01/09 03:37:48;;;;;;;16.70;9.45;;;;;;;5.87;100.00;99278.66;4985375;28;20115;-84
2023/01/09 03:40:13;;;;;;;17.00;9.73;;;;;;;6.01;100.00;99282.75;4981184;28;20070;-84
2023/01/09 03:42:39;;;;;;;19.20;8.73;;;;;;;5.94;100.00;99285.47;5001497;28;20508;-84
2023/01/09 03:45:05;;;;;;;23.48;12.27;;;;;;;5.85;100.00;99291.34;4986432;28;20033;-84
2023/01/09 03:47:30;;;;;;;22.02;10.77;;;;;;;5.94;100.00;99293.78;5005063;28;20030;-84
2023/01/09 03:49:56;;;;;;;23.63;9.93;;;;;;;5.72;100.00;99265.88;5003759;28;20018;-84
2023/01/09 03:52:21;;;;;;;16.13;8.77;;;;;;;5.81;100.00;99294.09;4989169;28;20045;-84
2023/01/09 03:54:47;;;;;;;22.95;10.50;;;;;;;5.87;100.00;99284.22;4993358;28;20088;-84
2023/01/09 03:57:12;;;;;;;19.92;11.88;;;;;;;5.87;100.00;99294.53;4988275;28;20034;-84
2023/01/09 03:59:38;;;;;;;19.33;10.23;;;;;;;5.75;100.00;99292.84;4989114;28;20565;-84
2023/01/09 04:02:03;;;;;;;15.32;9.30;;;;;;;5.85;100.00;99300.47;4988802;28;20545;-84
2023/01/09 04:04:28;;;;;;;19.05;11.15;;;;;;;5.84;100.00;99290.56;4988607;28;20032;-84
2023/01/09 04:06:54;;;;;;;22.80;9.55;;;;;;;5.98;100.00;99283.53;4992060;28;20030;-84
2023/01/09 04:09:19;;;;;;;21.67;10.63;;;;;;;6.11;100.00;99287.59;5015787;28;20034;-84
2023/01/09 04:11:44;;;;;;;20.20;11.82;;;;;;;5.84;100.00;99296.13;5002299;28;20053;-84
2023/01/09 04:14:10;;;;;;;17.15;9.30;;;;;;;6.04;100.00;99301.44;4988158;28;20097;-84
2023/01/09 04:16:35;;;;;;;21.42;9.43;;;;;;;6.10;100.00;99286.81;4983662;28;20037;-84
2023/01/09 04:19:00;;;;;;;16.55;9.27;;;;;;;6.04;100.00;99295.88;4984902;28;20030;-84
2023/01/09 04:21:26;;;;;;;20.48;9.82;;;;;;;6.05;100.00;99300.25;4986343;28;20037;-84
2023/01/09 04:23:51;;;;;;;20.73;10.45;;;;;;;5.72;100.00;99288.06;5003952;28;20176;-84
2023/01/09 04:26:16;;;;;;;19.45;11.02;;;;;;;5.77;100.00;99292.47;4986165;28;20116;-84
2023/01/09 04:28:42;;;;;;;20.42;9.82;;;;;;;6.01;100.00;99296.63;4991409;28;20200;-84
2023/01/09 04:31:07;;;;;;;22.95;10.93;;;;;;;5.86;100.00;99302.09;4983479;28;20026;-84
2023/01/09 04:33:33;;;;;;;17.38;9.55;;;;;;;5.87;100.00;99305.66;4985720;28;20117;-85
2023/01/09 04:35:59;;;;;;;19.45;10.18;;;;;;;5.93;100.00;99303.31;4986532;28;20422;-84
2023/01/09 04:38:25;;;;;;;15.13;8.88;;;;;;;5.97;100.00;99312.50;4990872;28;20069;-84
2023/01/09 04:40:51;;;;;;;25.25;10.60;;;;;;;5.79;100.00;99304.78;4991291;28;20033;-84
2023/01/09 04:43:16;;;;;;;22.27;9.35;;;;;;;5.86;100.00;99310.41;4988419;28;20034;-84
2023/01/09 04:45:42;;;;;;;21.35;9.68;;;;;;;5.81;100.00;99302.41;4990810;28;20030;-84
2023/01/09 04:48:07;;;;;;;16.98;9.80;;;;;;;5.65;100.00;99305.47;4987100;28;20109;-84
2023/01/09 04:50:32;;;;;;;17.50;10.02;;;;;;;5.60;100.00;99307.78;5000358;28;20030;-84
2023/01/09 04:52:58;;;;;;;21.42;11.20;;;;;;;5.56;100.00;99323.63;4986803;28;20031;-84
2023/01/09 04:55:23;;;;;;;24.60;9.93;;;;;;;5.67;100.00;99318.94;4989976;28;20389;-84
2023/01/09 04:57:48;;;;;;;20.33;9.95;;;;;;;5.58;100.00;99319.28;4996480;28;20467;-84
2023/01/09 05:00:14;;;;;;;21.25;10.00;;;;;;;5.66;100.00;99311.81;4989047;28;20084;-84
2023/01/09 05:02:40;;;;;;;20.50;9.82;;;;;;;5.35;100.00;99319.44;4994365;28;20080;-84
2023/01/09 05:05:06;;;;;;;21.65;10.57;;;;;;;5.55;100.00;99330.34;5003090;28;20934;-84
2023/01/09 05:07:32;;;;;;;18.52;11.13;;;;;;;5.60;100.00;99330.00;4991071;28;20022;-84
2023/01/09 05:09:58;;;;;;;20.58;10.15;;;;;;;5.66;100.00;99334.03;4982211;28;20077;-84
2023/01/09 05:12:23;;;;;;;21.50;11.40;;;;;;;5.67;100.00;99336.44;4984912;28;20483;-84
2023/01/09 05:14:49;;;;;;;19.27;11.73;;;;;;;5.81;100.00;99335.75;4986278;28;20382;-84
2023/01/09 05:17:14;;;;;;;19.00;9.70;;;;;;;5.47;100.00;99326.72;4988742;28;20077;-84
2023/01/09 05:19:39;;;;;;;29.08;11.95;;;;;;;5.40;100.00;99335.75;4982516;28;20471;-84
2023/01/09 05:22:05;;;;;;;25.85;10.57;;;;;;;5.64;100.00;99325.28;4987240;28;20101;-84
2023/01/09 05:24:30;;;;;;;20.23;9.63;;;;;;;5.47;100.00;99321.94;4990092;28;20037;-84
2023/01/09 05:26:56;;;;;;;23.63;11.32;;;;;;;5.45;100.00;99324.31;5002439;28;20061;-84
2023/01/09 05:29:21;;;;;;;18.77;9.25;;;;;;;5.45;100.00;99331.84;4988004;28;20482;-84
2023/01/09 05:31:46;;;;;;;19.40;9.85;;;;;;;5.43;100.00;99321.13;4990964;28;20034;-84
2023/01/09 05:34:12;;;;;;;17.20;10.07;;;;;;;5.52;100.00;99317.22;4989843;28;20058;-83
2023/01/09 05:36:37;;;;;;;25.02;9.85;;;;;;;5.52;100.00;99331.09;5009706;28;20101;-84
2023/01/09 05:39:04;;;;;;;26.40;11.20;;;;;;;5.68;100.00;99326.13;4991766;28;20031;-84
2023/01/09 05:41:29;;;;;;;22.85;9.50;;;;;;;5.44;100.00;99321.91;4993124;28;20053;-84
2023/01/09 05:43:55;;;;;;;16.75;8.70;;;;;;;5.38;100.00;99313.16;4990281;28;20060;-84
2023/01/09 05:46:20;;;;;;;19.02;9.75;;;;;;;5.46;100.00;99323.13;4986589;28;20029;-84
2023/01/09 05:48:46;;;;;;;18.45;9.13;;;;;;;5.35;100.00;99330.53;4990881;28;20026;-84
2023/01/09 05:51:11;;;;;;;15.15;8.30;;;;;;;5.27;100.00;99320.53;4984409;28;20549;-84
2023/01/09 05:53:36;;;;;;;20.52;8.40;;;;;;;5.48;100.00;99320.78;4988084;28;20033;-84
2023/01/09 05:56:02;;;;;;;23.58;8.88;;;;;;;5.18;100.00;99314.50;4989786;28;20042;-84
2023/01/09 05:58:27;;;;;;;18.05;8.02;;;;;;;5.33;100.00;99326.56;4991411;28;20040;-84
2023/01/09 06:00:53;;;;;;;16.15;8.00;;;;;;;5.48;100.00;99328.28;4984668;28;20612;-84
2023/01/09 06:03:18;;;;;;;13.05;8.45;;;;;;;5.50;100.00;99326.75;4974902;28;20034;-84
2023/01/09 06:05:44;;;;;;;19.38;8.35;;;;;;;5.39;100.00;99336.94;5001679;28;20026;-83
2023/01/09 06:08:09;;;;;;;10.15;6.90;;;;;;;5.34;100.00;99334.50;4985550;28;20030;-84
2023/01/09 06:10:34;;;;;;;14.95;6.25;;;;;;;5.32;100.00;99342.41;4989354;28;20481;-84
2023/01/09 06:13:01;;;;;;;12.27;6.15;;;;;;;5.24;100.00;99344.28;4990085;28;20093;-84
2023/01/09 06:15:26;;;;;;;14.25;5.97;;;;;;;5.24;100.00;99349.06;4991260;28;20506;-84
2023/01/09 06:17:52;;;;;;;17.90;6.78;;;;;;;5.14;100.00;99331.09;4990063;28;20061;-84
2023/01/09 06:20:17;;;;;;;12.00;6.10;;;;;;;5.14;100.00;99338.63;4984546;28;20122;-84
2023/01/09 06:22:44;;;;;;;14.10;5.68;;;;;;;5.29;100.00;99332.06;4979506;28;20038;-84
2023/01/09 06:25:10;;;;;;;17.15;6.20;;;;;;;5.16;100.00;99339.06;4989019;28;20018;-84
2023/01/09 06:27:35;;;;;;;15.30;6.57;;;;;;;5.57;100.00;99345.44;4986840;28;20093;-84
2023/01/09 06:30:00;;;;;;;16.15;6.30;;;;;;;5.47;100.00;99338.59;4992377;28;20026;-84
2023/01/09 06:32:26;;;;;;;11.05;5.20;;;;;;;5.48;100.00;99342.97;4985253;28;20397;-84
2023/01/09 06:34:51;;;;;;;11.85;5.30;;;;;;;5.26;100.00;99321.72;4976605;28;20034;-84
2023/01/09 06:37:16;;;;;;;10.05;5.20;;;;;;;5.37;100.00;99328.19;4993720;28;20560;-84
2023/01/09 06:39:42;;;;;;;8.23;5.25;;;;;;;5.34;100.00;99334.50;5004953;28;20101;-84
2023/01/09 06:42:07;;;;;;;10.70;5.35;;;;;;;5.46;100.00;99337.00;4984168;28;20048;-84
2023/01/09 06:44:35;;;;;;;13.75;5.88;;;;;;;5.33;100.00;99343.19;4975757;28;20065;-84
2023/01/09 06:47:01;;;;;;;14.15;5.82;;;;;;;5.34;100.00;99334.50;5000008;28;20371;-84
2023/01/09 06:49:26;;;;;;;10.57;5.18;;;;;;;5.40;100.00;99343.28;4987067;28;20467;-84
2023/01/09 06:51:52;;;;;;;22.92;7.55;;;;;;;5.52;100.00;99339.44;4987485;28;20096;-84
2023/01/09 06:54:18;;;;;;;11.90;5.40;;;;;;;5.79;100.00;99349.22;4994114;28;20494;-89
2023/01/09 06:56:43;;;;;;;14.25;5.38;;;;;;;5.46;100.00;99350.88;4980655;28;20037;-89
2023/01/09 06:59:09;;;;;;;11.68;6.63;;;;;;;5.35;100.00;99332.53;4989313;28;20113;-90
2023/01/09 07:01:34;;;;;;;9.40;5.03;;;;;;;5.67;100.00;99350.31;4982305;28;20030;-88
2023/01/09 07:04:00;;;;;;;9.30;5.53;;;;;;;5.59;100.00;99356.19;4982527;28;20018;-88
2023/01/09 07:06:25;;;;;;;16.35;5.78;;;;;;;5.88;100.00;99355.25;4987808;28;20040;-83
2023/01/09 07:08:51;;;;;;;17.95;5.82;;;;;;;6.50;100.00;99342.63;4988073;28;20115;-88
2023/01/09 07:11:16;;;;;;;7.32;4.07;;;;;;;8.43;100.00;99350.66;4990313;28;20037;-81
2023/01/09 07:13:41;;;;;;;19.40;6.78;;;;;;;6.71;100.00;99359.44;4985928;28;20030;-85
2023/01/09 07:16:07;;;;;;;17.13;5.82;;;;;;;6.09;100.00;99353.84;4990113;28;20049;-85
2023/01/09 07:18:33;;;;;;;12.30;6.53;;;;;;;5.65;100.00;99349.06;4991744;28;20069;-85
2023/01/09 07:20:58;;;;;;;16.45;5.97;;;;;;;5.79;100.00;99349.22;5002770;28;20529;-84
2023/01/09 07:23:23;;;;;;;12.20;5.40;;;;;;;5.64;100.00;99353.03;4984702;28;20026;-85
2023/01/09 07:25:50;;;;;;;12.15;6.40;;;;;;;5.68;100.00;99356.66;4986739;28;20053;-85
2023/01/09 07:28:15;;;;;;;14.25;5.70;;;;;;;5.73;100.00;99359.06;4980592;28;20069;-85
2023/01/09 07:30:41;;;;;;;18.05;6.18;;;;;;;5.72;100.00;99354.72;4987962;28;20475;-85
2023/01/09 07:33:06;;;;;;;13.77;4.88;;;;;;;5.89;100.00;99358.81;4988901;28;20400;-85
2023/01/09 07:35:32;;;;;;;9.73;5.32;;;;;;;5.71;100.00;99344.75;4980718;28;20030;-84
2023/01/09 07:37:57;;;;;;;14.93;5.43;;;;;;;5.71;100.00;99350.31;4981730;28;20030;-85
2023/01/09 07:40:23;;;;;;;14.05;5.85;;;;;;;5.69;100.00;99356.28;4982512;28;20398;-84
2023/01/09 07:42:52;;;;;;;18.30;6.65;;;;;;;5.76;100.00;99358.31;4999763;28;20118;-85
2023/01/09 07:45:17;;;;;;;11.90;5.75;;;;;;;5.73;100.00;99366.59;4987234;28;20034;-85
2023/01/09 07:47:42;;;;;;;12.05;5.20;;;;;;;5.65;100.00;99361.00;4988420;28;20029;-84
2023/01/09 07:50:08;;;;;;;13.45;5.38;;;;;;;5.61;100.00;99360.16;5005477;28;20430;-85
2023/01/09 07:52:34;;;;;;;14.20;5.45;;;;;;;5.60;100.00;99364.09;4989910;28;20045;-85
2023/01/09 07:54:59;;;;;;;15.30;6.28;;;;;;;5.66;100.00;99367.34;4987023;28;20395;-85
2023/01/09 07:57:25;;;;;;;9.85;5.82;;;;;;;5.68;100.00;99371.31;4984351;28;20418;-85
2023/01/09 07:59:50;;;;;;;12.30;5.07;;;;;;;5.58;100.00;99346.25;4986426;28;20114;-84
2023/01/09 08:02:16;;;;;;;9.75;5.07;;;;;;;5.64;100.00;99370.47;4983674;28;20165;-85
2023/01/09 08:04:42;;;;;;;11.00;4.85;;;;;;;5.66;100.00;99373.69;5003164;28;20034;-84
2023/01/09 08:07:07;;;;;;;16.30;5.70;;;;;;;5.85;100.00;99369.09;4984446;28;20026;-84
2023/01/09 08:09:32;;;;;;;16.27;4.63;;;;;;;5.85;100.00;99366.31;4987360;28;20050;-85
2023/01/09 08:11:58;;;;;;;8.85;4.55;;;;;;;5.80;100.00;99361.13;4987809;28;20080;-85
2023/01/09 08:14:23;;;;;;;12.65;4.68;;;;;;;5.79;100.00;99365.88;4990137;28;20069;-85
2023/01/09 08:16:49;;;;;;;8.15;4.00;;;;;;;5.79;100.00;99376.97;4986969;28;20030;-85
2023/01/09 08:19:14;;;;;;;9.32;4.45;;;;;;;5.72;100.00;99370.56;4983272;28;20026;-85
2023/01/09 08:21:40;;;;;;;9.45;5.13;;;;;;;5.69;100.00;99361.00;4996691;28;20520;-85
2023/01/09 08:24:05;;;;;;;12.93;4.60;;;;;;;5.70;100.00;99362.63;4996102;28;20096;-84
2023/01/09 08:26:31;;;;;;;12.00;5.43;;;;;;;5.82;100.00;99370.66;4986107;28;20030;-85
2023/01/09 08:28:56;;;;;;;11.65;4.63;;;;;;;5.77;100.00;99356.31;5002048;28;20014;-85
2023/01/09 08:31:21;;;;;;;11.48;4.15;;;;;;;5.86;100.00;99371.50;4995940;28;20058;-85
2023/01/09 08:33:47;;;;;;;15.45;5.45;;;;;;;5.81;100.00;99374.63;4986931;28;20060;-85
2023/01/09 08:36:13;;;;;;;15.38;5.90;;;;;;;5.66;100.00;99350.69;4995970;28;20019;-86
2023/01/09 08:38:39;;;;;;;8.57;4.00;;;;;;;5.72;100.00;99354.72;4988927;28;20034;-85
2023/01/09 08:47:04;;;;;;;12.35;4.32;;;;;;;5.87;100.00;99359.19;4989112;28;20455;-85
2023/01/09 08:49:18;;;;;;;7.65;3.58;;;;;;;5.97;100.00;99362.50;4992909;28;20041;-85
2023/01/09 08:51:44;;;;;;;14.77;5.10;;;;;;;5.95;100.00;99353.75;5012824;28;20030;-85
2023/01/09 08:54:09;;;;;;;8.32;3.85;;;;;;;6.02;100.00;99364.91;4991989;28;20398;-84
2023/01/09 08:56:35;;;;;;;9.77;4.55;;;;;;;6.02;100.00;99362.94;4984030;28;20105;-85
2023/01/09 08:59:00;;;;;;;12.27;5.10;;;;;;;5.89;100.00;99354.06;4986265;28;20041;-85
2023/01/09 09:01:25;;;;;;;16.73;4.32;;;;;;;5.98;100.00;99355.75;4986730;28;20172;-85
2023/01/09 09:03:51;;;;;;;11.60;4.85;;;;;;;5.95;100.00;99356.53;5008409;28;20188;-85
2023/01/09 09:06:16;;;;;;;10.85;4.32;;;;;;;5.96;100.00;99358.91;4995763;28;20098;-85
2023/01/09 09:08:42;;;;;;;8.82;4.43;;;;;;;6.10;100.00;99369.34;4996280;28;20058;-85
2023/01/09 09:11:07;;;;;;;15.07;6.22;;;;;;;6.02;100.00;99376.03;4995126;28;21477;-84
2023/01/09 09:13:32;;;;;;;13.40;4.35;;;;;;;6.13;100.00;99373.34;4994251;28;20031;-85
2023/01/09 09:15:58;;;;;;;10.68;4.50;;;;;;;6.00;100.00;99359.72;5007202;28;20037;-85
2023/01/09 09:18:23;;;;;;;12.23;3.80;;;;;;;6.17;100.00;99380.50;4995282;28;20069;-85
2023/01/09 09:20:48;;;;;;;13.90;4.85;;;;;;;5.99;100.00;99368.47;5009532;28;20023;-85
2023/01/09 09:23:14;;;;;;;8.82;4.55;;;;;;;6.07;100.00;99381.22;4992721;28;20034;-85
2023/01/09 09:25:39;;;;;;;10.80;5.30;;;;;;;6.01;100.00;99372.44;4996265;28;20037;-85
2023/01/09 09:28:05;;;;;;;14.73;6.32;;;;;;;5.98;100.00;99383.53;4992303;28;20467;-85
2023/01/09 09:30:31;;;;;;;11.93;5.13;;;;;;;6.03;100.00;99378.44;5001614;28;20068;-85
2023/01/09 09:32:56;;;;;;;11.52;5.68;;;;;;;6.08;100.00;99377.28;5001489;28;20442;-85
2023/01/09 09:35:25;;;;;;;11.68;5.50;;;;;;;5.94;100.00;99361.22;4986600;28;20058;-85
2023/01/09 09:37:56;;;;;;;12.07;4.25;;;;;;;6.18;100.00;99387.66;5007175;28;20470;-85
2023/01/09 09:40:59;;;;;;;11.82;4.00;;;;;;;6.26;100.00;99389.34;4988157;28;20038;-84
2023/01/09 09:47:10;;;;;;;17.02;6.78;;;;;;;6.07;100.00;99392.31;4989388;28;20121;-85
2023/01/09 09:50:31;;;;;;;12.88;5.97;;;;;;;6.21;100.00;99408.31;4995071;28;20109;-85
2023/01/09 09:53:16;;;;;;;13.20;4.65;;;;;;;6.28;100.00;99392.53;4979728;28;20487;-85
2023/01/09 09:55:44;;;;;;;11.63;4.78;;;;;;;6.25;100.00;99393.28;4986598;28;20095;-84
2023/01/09 09:58:42;;;;;;;15.27;4.88;;;;;;;6.35;100.00;99416.00;4994893;28;20053;-85
2023/01/09 10:01:13;;;;;;;8.80;5.15;;;;;;;6.43;100.00;99417.63;5003730;28;20046;-84
2023/01/09 10:03:54;;;;;;;10.40;5.30;;;;;;;6.47;100.00;99426.78;4984010;28;20494;-85
2023/01/09 10:06:27;;;;;;;9.43;5.32;;;;;;;6.50;100.00;99428.81;4988864;28;20171;-84
2023/01/09 10:09:02;;;;;;;16.15;6.90;;;;;;;6.35;100.00;99436.25;5008024;28;20100;-85
2023/01/09 10:11:56;;;;;;;15.35;6.55;;;;;;;6.45;100.00;99431.94;4985777;28;20026;-84
2023/01/09 10:14:22;;;;;;;13.32;6.75;;;;;;;6.56;100.00;99441.16;4989624;28;20030;-85
2023/01/09 10:17:11;;;;;;;9.32;5.10;;;;;;;6.39;100.00;99436.25;4988903;28;20504;-85
2023/01/09 10:20:07;;;;;;;14.23;6.68;;;;;;;6.41;100.00;99454.16;5002099;28;20050;-85
2023/01/09 10:23:17;;;;;;;11.88;6.65;;;;;;;6.27;100.00;99456.81;4995665;28;20105;-84
2023/01/09 10:25:58;;;;;;;10.63;6.10;;;;;;;6.37;100.00;99460.88;4990251;28;20521;-84
2023/01/09 10:28:49;;;;;;;16.73;7.47;;;;;;;6.48;100.00;99461.75;4996080;28;20046;-85
2023/01/09 10:31:35;;;;;;;15.02;7.03;;;;;;;6.58;100.00;99471.34;4983875;28;20030;-85
2023/01/09 10:34:13;;;;;;;18.38;9.07;;;;;;;6.45;100.00;99480.00;4985029;28;20053;-85
2023/01/09 10:37:09;;;;;;;16.15;8.02;;;;;;;6.44;100.00;99474.81;4992713;28;20053;-85
2023/01/09 10:39:43;;;;;;;17.95;8.38;;;;;;;6.55;100.00;99489.59;5000396;28;20027;-85
2023/01/09 10:42:32;;;;;;;16.73;8.88;;;;;;;6.54;100.00;99498.34;5001452;28;20045;-85
2023/01/09 10:45:19;;;;;;;29.83;13.15;;;;;;;6.58;100.00;99507.47;4982852;28;20483;-84
2023/01/09 10:47:45;;;;;;;24.25;10.07;;;;;;;6.63;100.00;99496.03;4996771;28;20065;-84
2023/01/09 10:50:21;;;;;;;21.20;9.43;;;;;;;6.69;100.00;99500.84;5013102;28;20390;-85
2023/01/09 10:52:50;;;;;;;24.45;11.13;;;;;;;6.65;100.00;99510.34;5008722;28;20056;-85
2023/01/09 10:55:20;;;;;;;26.00;11.10;;;;;;;6.67;100.00;99514.31;5011819;28;20026;-83
2023/01/09 10:57:51;;;;;;;24.60;11.68;;;;;;;6.64;100.00;99504.00;5000797;28;20084;-85
2023/01/09 11:00:20;;;;;;;26.85;12.88;;;;;;;6.75;100.00;99519.97;5005748;28;20679;-85
2023/01/09 11:02:46;;;;;;;23.23;11.20;;;;;;;6.75;100.00;99508.84;4991568;28;20364;-84
2023/01/09 11:05:14;;;;;;;26.60;12.63;;;;;;;6.88;100.00;99530.38;4987325;28;20041;-85
2023/01/09 11:07:43;;;;;;;25.42;13.57;;;;;;;6.92;100.00;99525.66;4993090;28;20027;-85
2023/01/09 11:10:11;;;;;;;24.88;12.88;;;;;;;6.94;100.00;99525.28;5000948;28;20507;-84
2023/01/09 11:12:37;;;;;;;26.60;13.73;;;;;;;6.91;100.00;99528.81;4989750;28;20040;-84
2023/01/09 11:15:15;;;;;;;24.77;12.52;;;;;;;6.90;100.00;99544.72;4994937;28;20026;-84
2023/01/09 11:17:41;;;;;;;33.05;14.98;;;;;;;6.96;100.00;99542.38;5003285;28;20030;-86
2023/01/09 11:20:25;;;;;;;34.58;14.75;;;;;;;6.97;100.00;99543.16;4986124;28;20034;-84
2023/01/09 11:22:55;;;;;;;31.55;14.45;;;;;;;6.94;100.00;99544.75;4992685;28;20574;-84
2023/01/09 11:25:24;;;;;;;29.15;14.23;;;;;;;6.99;100.00;99549.94;4988061;28;20479;-85
2023/01/09 11:28:01;;;;;;;34.13;15.88;;;;;;;7.08;100.00;99555.16;4988283;28;20038;-85
2023/01/09 11:30:28;;;;;;;31.25;14.15;;;;;;;7.04;100.00;99549.59;5002981;28;20030;-85
2023/01/09 11:32:56;;;;;;;32.42;13.90;;;;;;;7.02;100.00;99554.75;4986887;28;20077;-84
2023/01/09 11:35:30;;;;;;;27.20;10.52;;;;;;;7.01;100.00;99549.56;4987550;28;20030;-85
2023/01/09 11:38:02;;;;;;;25.70;12.30;;;;;;;7.00;100.00;99559.91;4988961;28;20049;-84
2023/01/09 11:40:34;;;;;;;26.52;11.60;;;;;;;7.02;100.00;99565.88;4990474;28;20363;-84
2023/01/09 11:43:03;;;;;;;25.35;11.18;;;;;;;7.03;100.00;99575.00;4981100;28;20039;-84
2023/01/09 11:45:31;;;;;;;26.73;11.15;;;;;;;7.07;100.00;99578.63;5000231;28;20564;-85
2023/01/09 11:47:57;;;;;;;28.10;10.50;;;;;;;7.09;100.00;99579.81;4985957;28;20081;-84